createdAt,value
2018-07-10T00:00:55.134Z,100.00
2018-07-10T00:03:35.092Z,100.00
2018-07-10T00:07:31.829Z,100.00
2018-07-10T00:12:20.685Z,100.00
2018-07-10T00:14:49.707Z,100.00
2018-07-10T00:17:18.721Z,100.00
2018-07-10T00:19:47.806Z,100.00
2018-07-10T00:22:16.904Z,100.00
2018-07-10T00:24:45.917Z,100.00
2018-07-10T00:27:14.907Z,100.00
2018-07-10T00:29:43.918Z,100.00
2018-07-10T00:32:13.017Z,100.00
2018-07-10T00:34:41.979Z,100.00
2018-07-10T00:37:10.969Z,100.00
2018-07-10T00:39:39.963Z,100.00
2018-07-10T00:42:09.045Z,100.00
2018-07-10T00:44:38.112Z,100.00
2018-07-10T00:47:07.080Z,100.00
2018-07-10T00:49:36.194Z,100.00
2018-07-10T00:52:05.175Z,100.00
2018-07-10T00:54:34.193Z,100.00
2018-07-10T00:57:03.420Z,100.00
2018-07-10T00:59:32.400Z,100.00
2018-07-10T01:02:01.453Z,100.00
2018-07-10T01:04:30.428Z,100.00
2018-07-10T01:06:59.542Z,100.00
2018-07-10T01:09:28.527Z,100.00
2018-07-10T01:11:57.495Z,100.00
2018-07-10T01:14:26.603Z,100.00
2018-07-10T01:16:55.584Z,100.00
2018-07-10T01:19:24.601Z,100.00
2018-07-10T01:21:53.569Z,100.00
2018-07-10T01:24:22.749Z,100.00
2018-07-10T01:26:51.768Z,100.00
2018-07-10T01:29:26.130Z,100.00
2018-07-10T01:31:55.596Z,100.00
2018-07-10T01:34:24.765Z,100.00
2018-07-10T01:36:55.156Z,100.00
2018-07-10T01:39:24.128Z,100.00
2018-07-10T01:41:53.160Z,100.00
2018-07-10T01:44:22.200Z,100.00
2018-07-10T01:46:51.232Z,100.00
2018-07-10T01:49:20.252Z,100.00
2018-07-10T01:51:49.237Z,100.00
2018-07-10T01:54:18.318Z,100.00
2018-07-10T01:56:47.357Z,100.00
2018-07-10T01:59:16.820Z,100.00
2018-07-10T02:01:45.924Z,100.00
2018-07-10T02:04:14.981Z,100.00
2018-07-10T02:06:43.974Z,100.00
2018-07-10T02:09:13.052Z,100.00
2018-07-10T02:11:42.024Z,100.00
2018-07-10T02:14:11.001Z,100.00
2018-07-10T02:16:39.977Z,100.00
2018-07-10T02:19:08.955Z,100.00
2018-07-10T02:21:38.021Z,100.00
2018-07-10T02:24:07.053Z,100.00
2018-07-10T02:26:36.113Z,100.00
2018-07-10T02:29:05.238Z,100.00
2018-07-10T02:31:34.372Z,100.00
2018-07-10T02:34:03.392Z,100.00
2018-07-10T02:36:32.465Z,100.00
2018-07-10T02:39:01.536Z,100.00
2018-07-10T02:41:30.534Z,100.00
2018-07-10T02:44:03.652Z,100.00
2018-07-10T02:46:33.783Z,100.00
2018-07-10T02:49:10.713Z,100.00
2018-07-10T02:51:45.564Z,100.00
2018-07-10T02:54:15.561Z,100.00
2018-07-10T02:56:45.441Z,100.00
2018-07-10T02:59:14.427Z,100.00
2018-07-10T03:01:43.409Z,100.00
2018-07-10T03:04:12.656Z,100.00
2018-07-10T03:06:41.667Z,100.00
2018-07-10T03:09:10.630Z,100.00
2018-07-10T03:11:39.656Z,100.00
2018-07-10T03:14:10.228Z,100.00
2018-07-10T03:16:39.774Z,100.00
2018-07-10T03:19:10.375Z,100.00
2018-07-10T03:21:39.416Z,100.00
2018-07-10T03:24:08.889Z,100.00
2018-07-10T03:26:37.989Z,100.00
2018-07-10T03:29:07.207Z,100.00
2018-07-10T03:31:36.167Z,100.00
2018-07-10T03:34:05.225Z,100.00
2018-07-10T03:36:34.246Z,100.00
2018-07-10T03:39:04.952Z,100.00
2018-07-10T03:41:34.117Z,100.00
2018-07-10T03:44:03.188Z,100.00
2018-07-10T03:46:32.155Z,100.00
2018-07-10T03:49:01.341Z,100.00
2018-07-10T03:51:30.402Z,100.00
2018-07-10T03:53:59.744Z,100.00
2018-07-10T03:56:29.004Z,100.00
2018-07-10T03:58:59.727Z,100.00
2018-07-10T04:01:37.003Z,100.00
2018-07-10T04:04:06.177Z,100.00
2018-07-10T04:06:35.652Z,100.00
2018-07-10T04:09:06.705Z,100.00
2018-07-10T04:11:36.506Z,100.00
2018-07-10T04:14:05.676Z,100.00
2018-07-10T04:16:34.732Z,100.00
2018-07-10T04:19:03.721Z,100.00
2018-07-10T04:21:34.601Z,100.00
2018-07-10T04:24:21.266Z,100.00
2018-07-10T04:27:33.239Z,100.00
2018-07-10T04:30:14.305Z,100.00
2018-07-10T04:32:43.449Z,100.00
2018-07-10T04:35:18.432Z,100.00
2018-07-10T04:37:50.236Z,100.00
2018-07-10T04:40:20.886Z,100.00
2018-07-10T04:42:56.059Z,100.00
2018-07-10T04:45:41.432Z,100.00
2018-07-10T04:48:25.093Z,99.13
2018-07-10T04:50:57.352Z,99.06
2018-07-10T04:53:34.917Z,99.13
2018-07-10T04:56:04.349Z,99.27
2018-07-10T04:58:33.822Z,99.74
2018-07-10T05:01:04.369Z,98.91
2018-07-10T05:03:33.705Z,97.19
2018-07-10T05:06:05.642Z,97.76
2018-07-10T05:08:34.808Z,98.48
2018-07-10T05:11:03.976Z,97.04
2018-07-10T05:13:32.986Z,96.60
2018-07-10T05:16:04.820Z,96.63
2018-07-10T05:18:34.722Z,96.36
2018-07-10T05:21:15.700Z,97.41
2018-07-10T05:23:44.953Z,97.84
2018-07-10T05:26:17.104Z,97.28
2018-07-10T05:28:51.815Z,97.11
2018-07-10T05:31:20.829Z,94.47
2018-07-10T05:33:51.372Z,95.42
2018-07-10T05:36:22.689Z,94.83
2018-07-10T05:38:56.125Z,94.36
2018-07-10T05:41:25.182Z,94.13
2018-07-10T05:43:54.950Z,94.34
2018-07-10T05:46:25.325Z,93.53
2018-07-10T05:49:02.398Z,94.36
2018-07-10T05:51:33.013Z,96.04
2018-07-10T05:54:05.829Z,95.31
2018-07-10T05:56:35.020Z,95.52
2018-07-10T05:59:05.896Z,95.21
2018-07-10T06:01:36.252Z,94.88
2018-07-10T06:04:05.359Z,94.75
2018-07-10T06:06:34.313Z,94.73
2018-07-10T06:09:04.059Z,93.69
2018-07-10T06:11:33.077Z,94.13
2018-07-10T06:14:02.172Z,94.08
2018-07-10T06:16:31.261Z,93.47
2018-07-10T06:19:00.318Z,93.04
2018-07-10T06:21:36.027Z,90.83
2018-07-10T06:24:10.289Z,92.05
2018-07-10T06:26:42.229Z,93.49
2018-07-10T06:29:12.316Z,93.24
2018-07-10T06:31:49.402Z,92.61
2018-07-10T06:34:20.472Z,92.95
2018-07-10T06:37:08.366Z,92.01
2018-07-10T06:39:37.615Z,90.99
2018-07-10T06:42:10.194Z,91.51
2018-07-10T06:44:39.821Z,91.82
2018-07-10T06:47:20.982Z,91.91
2018-07-10T06:49:50.418Z,91.38
2018-07-10T06:52:21.931Z,90.20
2018-07-10T06:55:21.678Z,88.13
2018-07-10T06:57:56.287Z,89.78
2018-07-10T07:00:25.916Z,90.38
2018-07-10T07:02:55.138Z,90.01
2018-07-10T07:05:24.084Z,89.80
2018-07-10T07:07:53.360Z,89.60
2018-07-10T07:10:22.392Z,90.48
2018-07-10T07:12:51.354Z,90.06
2018-07-10T07:15:21.464Z,91.15
2018-07-10T07:17:52.071Z,92.12
2018-07-10T07:20:22.077Z,95.38
2018-07-10T07:22:51.561Z,94.97
2018-07-10T07:25:20.588Z,94.85
2018-07-10T07:27:49.681Z,93.39
2018-07-10T07:30:18.708Z,92.53
2018-07-10T07:32:47.886Z,92.89
2018-07-10T07:35:16.857Z,90.75
2018-07-10T07:37:45.933Z,87.29
2018-07-10T07:40:14.957Z,86.47
2018-07-10T07:42:43.948Z,84.19
2018-07-10T07:45:12.956Z,83.34
2018-07-10T07:47:41.911Z,82.38
2018-07-10T07:50:10.945Z,80.00
2018-07-10T07:52:40.039Z,79.50
2018-07-10T07:55:09.109Z,77.50
2018-07-10T07:57:38.119Z,79.68
2018-07-10T08:00:07.170Z,79.10
2018-07-10T08:02:36.214Z,79.90
2018-07-10T08:05:05.384Z,81.49
2018-07-10T08:07:34.457Z,79.56
2018-07-10T08:10:03.401Z,76.55
2018-07-10T08:12:32.892Z,75.23
2018-07-10T08:15:02.834Z,72.86
2018-07-10T08:17:33.837Z,70.70
2018-07-10T08:20:02.848Z,71.23
2018-07-10T08:22:31.819Z,70.84
2018-07-10T08:25:00.826Z,68.67
2018-07-10T08:27:29.965Z,68.45
2018-07-10T08:29:59.260Z,68.91
2018-07-10T08:32:30.007Z,68.37
2018-07-10T08:35:29.986Z,67.63
2018-07-10T08:37:58.971Z,67.84
2018-07-10T08:40:28.033Z,66.31
2018-07-10T08:42:57.145Z,66.58
2018-07-10T08:45:26.250Z,65.32
2018-07-10T08:47:55.373Z,65.27
2018-07-10T08:50:24.584Z,65.62
2018-07-10T08:52:53.828Z,65.61
2018-07-10T08:55:22.833Z,64.97
2018-07-10T08:57:52.151Z,65.07
2018-07-10T09:00:21.220Z,67.21
2018-07-10T09:02:50.238Z,65.58
2018-07-10T09:05:19.286Z,68.17
2018-07-10T09:07:48.377Z,65.59
2018-07-10T09:10:17.468Z,67.54
2018-07-10T09:12:46.461Z,64.86
2018-07-10T09:15:15.542Z,66.35
2018-07-10T09:17:44.569Z,66.58
2018-07-10T09:20:21.204Z,65.79
2018-07-10T09:22:50.240Z,61.55
2018-07-10T09:25:19.199Z,61.26
2018-07-10T09:27:48.292Z,61.62
2018-07-10T09:30:17.730Z,58.78
2018-07-10T09:32:46.776Z,58.92
2018-07-10T09:35:15.749Z,57.26
2018-07-10T09:37:45.664Z,56.09
2018-07-10T09:40:15.314Z,58.82
2018-07-10T09:42:49.669Z,59.48
2018-07-10T09:45:18.888Z,61.18
2018-07-10T09:47:47.856Z,63.44
2018-07-10T09:50:17.022Z,68.14
2018-07-10T09:52:46.004Z,68.77
2018-07-10T09:55:15.044Z,69.55
2018-07-10T09:57:44.475Z,70.05
2018-07-10T10:00:13.525Z,69.51
2018-07-10T10:02:42.548Z,71.31
2018-07-10T10:05:11.600Z,72.62
2018-07-10T10:07:40.573Z,73.43
2018-07-10T10:10:09.567Z,69.18
2018-07-10T10:12:38.608Z,67.60
2018-07-10T10:15:07.574Z,64.89
2018-07-10T10:17:36.642Z,63.99
2018-07-10T10:20:05.657Z,64.38
2018-07-10T10:22:34.620Z,62.03
2018-07-10T10:25:05.197Z,59.27
2018-07-10T10:27:34.229Z,57.47
2018-07-10T10:30:03.277Z,56.57
2018-07-10T10:32:32.860Z,56.90
2018-07-10T10:35:01.977Z,58.21
2018-07-10T10:37:31.222Z,58.66
2018-07-10T10:40:01.414Z,59.56
2018-07-10T10:42:30.572Z,61.65
2018-07-10T10:45:01.733Z,59.87
2018-07-10T10:47:32.447Z,61.94
2018-07-10T10:50:02.320Z,59.14
2018-07-10T10:52:31.476Z,57.87
2018-07-10T10:55:00.780Z,57.71
2018-07-10T10:57:33.785Z,59.17
2018-07-10T11:00:03.219Z,58.71
2018-07-10T11:02:32.479Z,60.76
2018-07-10T11:05:02.267Z,63.45
2018-07-10T11:07:32.328Z,64.76
2018-07-10T11:10:01.406Z,64.40
2018-07-10T11:12:32.236Z,64.26
2018-07-10T11:15:02.728Z,64.11
2018-07-10T11:17:34.209Z,64.99
2018-07-10T11:20:57.924Z,64.96
2018-07-10T11:23:37.001Z,65.02
2018-07-10T11:26:14.134Z,63.08
2018-07-10T11:28:43.105Z,62.02
2018-07-10T11:31:12.084Z,59.29
2018-07-10T11:33:41.117Z,56.43
2018-07-10T11:36:10.201Z,51.79
2018-07-10T11:38:39.181Z,49.92
2018-07-10T11:41:08.253Z,46.41
2018-07-10T11:43:37.227Z,47.96
2018-07-10T11:46:06.279Z,47.65
2018-07-10T11:48:35.260Z,45.32
2018-07-10T11:51:04.381Z,44.59
2018-07-10T11:53:33.849Z,45.64
2018-07-10T11:56:02.816Z,46.51
2018-07-10T11:58:31.823Z,47.50
2018-07-10T12:01:00.873Z,50.36
2018-07-10T12:03:39.261Z,52.22
2018-07-10T12:06:09.309Z,55.77
2018-07-10T12:08:38.355Z,57.92
2018-07-10T12:11:13.044Z,59.26
2018-07-10T12:13:42.376Z,63.27
2018-07-10T12:16:11.512Z,69.75
2018-07-10T12:18:40.520Z,71.57
2018-07-10T12:21:11.493Z,77.65
2018-07-10T12:23:40.575Z,82.57
2018-07-10T12:26:09.914Z,84.47
2018-07-10T12:28:39.173Z,85.27
2018-07-10T12:31:08.161Z,86.04
2018-07-10T12:33:37.230Z,84.94
2018-07-10T12:36:06.804Z,82.38
2018-07-10T12:38:35.841Z,78.73
2018-07-10T12:41:05.061Z,78.11
2018-07-10T12:43:34.034Z,69.69
2018-07-10T12:46:03.087Z,70.25
2018-07-10T12:48:32.197Z,71.62
2018-07-10T12:51:01.302Z,69.57
2018-07-10T12:53:30.313Z,67.12
2018-07-10T12:56:00.836Z,67.49
2018-07-10T12:58:32.120Z,65.78
2018-07-10T13:01:01.353Z,66.98
2018-07-10T13:03:30.409Z,67.53
2018-07-10T13:05:59.889Z,66.53
2018-07-10T13:08:29.039Z,68.81
2018-07-10T13:10:58.020Z,68.70
2018-07-10T13:13:27.042Z,72.22
2018-07-10T13:15:56.108Z,73.16
2018-07-10T13:18:28.501Z,71.76
2018-07-10T13:20:57.476Z,71.70
2018-07-10T13:23:26.432Z,73.55
2018-07-10T13:25:55.516Z,71.50
2018-07-10T13:28:24.462Z,72.62
2018-07-10T13:30:53.501Z,71.00
2018-07-10T13:33:22.467Z,69.49
2018-07-10T13:35:51.569Z,67.35
2018-07-10T13:38:21.636Z,66.53
2018-07-10T13:40:51.535Z,65.87
2018-07-10T13:43:20.713Z,66.82
2018-07-10T13:45:49.708Z,66.58
2018-07-10T13:48:18.728Z,71.43
2018-07-10T13:50:47.745Z,69.59
2018-07-10T13:53:16.745Z,72.37
2018-07-10T13:55:45.882Z,70.02
2018-07-10T13:58:17.237Z,70.33
2018-07-10T14:00:51.430Z,72.08
2018-07-10T14:03:20.719Z,72.13
2018-07-10T14:05:49.798Z,73.51
2018-07-10T14:08:18.783Z,68.04
2018-07-10T14:10:47.753Z,69.32
2018-07-10T14:13:16.782Z,68.46
2018-07-10T14:15:45.889Z,65.65
2018-07-10T14:18:15.483Z,65.42
2018-07-10T14:20:50.894Z,65.76
2018-07-10T14:23:20.051Z,66.25
2018-07-10T14:25:49.542Z,65.41
2018-07-10T14:28:18.668Z,66.99
2018-07-10T14:30:47.779Z,66.13
2018-07-10T14:33:16.885Z,68.57
2018-07-10T14:35:45.913Z,66.04
2018-07-10T14:38:20.704Z,66.16
2018-07-10T14:40:50.766Z,65.51
2018-07-10T14:43:22.006Z,66.72
2018-07-10T14:45:52.682Z,66.09
2018-07-10T14:48:24.033Z,67.40
2018-07-10T14:50:55.093Z,68.13
2018-07-10T14:53:24.135Z,69.35
2018-07-10T14:55:53.143Z,68.62
2018-07-10T14:58:22.257Z,69.41
2018-07-10T15:00:51.773Z,69.56
2018-07-10T15:03:20.964Z,67.76
2018-07-10T15:05:49.981Z,68.11
2018-07-10T15:08:19.058Z,66.36
2018-07-10T15:10:48.165Z,66.75
2018-07-10T15:13:17.202Z,68.00
2018-07-10T15:15:54.913Z,70.15
2018-07-10T15:18:55.393Z,67.11
2018-07-10T15:21:24.692Z,66.26
2018-07-10T15:23:53.652Z,65.61
2018-07-10T15:26:22.681Z,65.35
2018-07-10T15:28:51.886Z,67.04
2018-07-10T15:31:20.924Z,66.00
2018-07-10T15:33:49.929Z,65.72
2018-07-10T15:36:18.973Z,67.06
2018-07-10T15:38:48.737Z,67.66
2018-07-10T15:41:18.217Z,67.57
2018-07-10T15:43:47.665Z,68.16
2018-07-10T15:46:16.672Z,71.07
2018-07-10T15:48:45.780Z,68.23
2018-07-10T15:51:15.268Z,69.96
2018-07-10T15:53:44.217Z,69.18
2018-07-10T15:56:13.260Z,69.10
2018-07-10T15:58:42.381Z,68.74
2018-07-10T16:01:11.441Z,68.52
2018-07-10T16:03:40.420Z,68.44
2018-07-10T16:06:09.526Z,69.52
2018-07-10T16:08:39.301Z,67.12
2018-07-10T16:11:08.356Z,66.80
2018-07-10T16:13:40.873Z,67.56
2018-07-10T16:16:15.448Z,67.74
2018-07-10T16:18:57.226Z,68.33
2018-07-10T16:21:37.809Z,67.47
2018-07-10T16:24:06.917Z,69.04
2018-07-10T16:26:35.949Z,70.10
2018-07-10T16:29:08.507Z,72.18
2018-07-10T16:31:40.542Z,70.81
2018-07-10T16:34:09.620Z,70.08
2018-07-10T16:36:38.610Z,72.67
2018-07-10T16:39:07.747Z,70.63
2018-07-10T16:41:41.716Z,70.63
2018-07-10T16:44:10.740Z,70.84
2018-07-10T16:46:41.377Z,68.69
2018-07-10T16:49:17.640Z,69.80
2018-07-10T16:51:53.620Z,71.81
2018-07-10T16:54:22.636Z,72.82
2018-07-10T16:56:51.594Z,73.27
2018-07-10T16:59:20.617Z,74.68
2018-07-10T17:01:49.636Z,74.49
2018-07-10T17:04:18.756Z,76.07
2018-07-10T17:06:47.836Z,76.69
2018-07-10T17:09:16.852Z,76.86
2018-07-10T17:11:45.865Z,76.46
2018-07-10T17:14:14.932Z,77.64
2018-07-10T17:16:44.369Z,78.31
2018-07-10T17:19:13.582Z,79.84
2018-07-10T17:21:42.775Z,82.05
2018-07-10T17:24:11.821Z,83.07
2018-07-10T17:26:41.203Z,83.83
2018-07-10T17:29:12.131Z,85.89
2018-07-10T17:31:41.297Z,87.96
2018-07-10T17:34:10.328Z,88.34
2018-07-10T17:36:39.293Z,88.10
2018-07-10T17:39:08.432Z,89.22
2018-07-10T17:41:38.393Z,89.38
2018-07-10T17:44:10.149Z,90.66
2018-07-10T17:46:39.396Z,91.69
2018-07-10T17:49:08.484Z,91.79
2018-07-10T17:51:37.536Z,91.96
2018-07-10T17:54:06.681Z,92.70
2018-07-10T17:56:35.885Z,93.88
2018-07-10T17:59:07.078Z,93.96
2018-07-10T18:01:36.762Z,93.93
2018-07-10T18:04:06.260Z,94.75
2018-07-10T18:06:35.501Z,93.96
2018-07-10T18:09:05.635Z,94.50
2018-07-10T18:11:34.822Z,95.08
2018-07-10T18:14:03.839Z,95.84
2018-07-10T18:16:35.912Z,96.40
2018-07-10T18:19:05.635Z,96.26
2018-07-10T18:21:35.969Z,97.79
2018-07-10T18:24:05.110Z,96.89
2018-07-10T18:26:34.220Z,97.64
2018-07-10T18:29:03.196Z,98.30
2018-07-10T18:31:32.172Z,98.24
2018-07-10T18:34:01.148Z,97.48
2018-07-10T18:36:30.236Z,97.29
2018-07-10T18:38:59.245Z,97.12
2018-07-10T18:41:28.405Z,97.52
2018-07-10T18:43:57.460Z,97.85
2018-07-10T18:46:26.425Z,97.67
2018-07-10T18:48:55.555Z,97.67
2018-07-10T18:51:24.593Z,97.69
2018-07-10T18:53:53.667Z,97.41
2018-07-10T18:56:23.023Z,97.49
2018-07-10T18:59:12.935Z,97.40
2018-07-10T19:01:58.844Z,96.49
2018-07-10T19:05:07.176Z,95.94
2018-07-10T19:07:39.180Z,96.44
2018-07-10T19:10:08.392Z,95.96
2018-07-10T19:12:38.109Z,96.79
2018-07-10T19:15:07.401Z,96.62
2018-07-10T19:17:36.752Z,96.27
2018-07-10T19:20:09.666Z,96.82
2018-07-10T19:23:16.698Z,96.04
2018-07-10T19:25:45.804Z,96.52
2018-07-10T19:28:14.870Z,96.68
2018-07-10T19:31:20.037Z,96.04
2018-07-10T19:33:53.942Z,94.61
2018-07-10T19:36:22.892Z,95.04
2018-07-10T19:38:52.001Z,94.24
2018-07-10T19:41:21.692Z,93.95
2018-07-10T19:43:50.795Z,93.79
2018-07-10T19:46:19.848Z,94.02
2018-07-10T19:48:51.449Z,93.16
2018-07-10T19:51:25.356Z,93.74
2018-07-10T19:54:25.549Z,94.34
2018-07-10T19:56:54.708Z,94.81
2018-07-10T19:59:23.775Z,94.89
2018-07-10T20:01:55.016Z,94.98
2018-07-10T20:04:39.660Z,94.66
2018-07-10T20:07:15.352Z,94.98
2018-07-10T20:09:56.444Z,96.36
2018-07-10T20:12:34.748Z,95.93
2018-07-10T20:16:11.321Z,95.77
2018-07-10T20:21:04.868Z,96.92
2018-07-10T20:24:09.985Z,97.75
2018-07-10T20:28:54.402Z,98.96
2018-07-10T20:32:31.700Z,99.43
2018-07-10T20:35:34.992Z,99.89
2018-07-10T20:38:03.990Z,100.00
2018-07-10T20:40:35.791Z,100.00
2018-07-10T20:43:13.703Z,100.00
2018-07-10T20:45:47.749Z,100.00
2018-07-10T20:49:22.670Z,100.00
2018-07-10T20:52:03.617Z,100.00
2018-07-10T20:54:52.574Z,100.00
2018-07-10T20:57:32.132Z,100.00
2018-07-10T21:00:08.084Z,100.00
2018-07-10T21:04:48.633Z,100.00
2018-07-10T21:07:27.837Z,100.00
2018-07-10T21:10:06.868Z,100.00
2018-07-10T21:12:39.348Z,100.00
2018-07-10T21:15:11.876Z,100.00
2018-07-10T21:18:05.287Z,100.00
2018-07-10T21:21:16.037Z,100.00
2018-07-10T21:23:55.699Z,100.00
2018-07-10T21:27:33.872Z,100.00
2018-07-10T21:30:37.848Z,100.00
2018-07-10T21:34:12.197Z,100.00
2018-07-10T21:37:46.937Z,100.00
2018-07-10T21:40:28.354Z,100.00
2018-07-10T21:43:35.002Z,100.00
2018-07-10T21:46:19.208Z,100.00
2018-07-10T21:50:01.145Z,100.00
2018-07-10T21:52:30.155Z,100.00
2018-07-10T21:54:59.180Z,100.00
2018-07-10T21:57:44.460Z,100.00
2018-07-10T22:00:13.523Z,100.00
2018-07-10T22:02:42.529Z,100.00
2018-07-10T22:05:11.564Z,100.00
2018-07-10T22:07:40.665Z,100.00
2018-07-10T22:10:09.722Z,100.00
2018-07-10T22:12:46.460Z,100.00
2018-07-10T22:15:15.541Z,100.00
2018-07-10T22:17:44.997Z,100.00
2018-07-10T22:20:14.066Z,100.00
2018-07-10T22:22:43.098Z,100.00
2018-07-10T22:25:12.075Z,100.00
2018-07-10T22:27:42.609Z,100.00
2018-07-10T22:30:19.526Z,100.00
2018-07-10T22:32:53.388Z,100.00
2018-07-10T22:35:22.416Z,100.00
2018-07-10T22:37:51.484Z,100.00
2018-07-10T22:40:20.470Z,100.00
2018-07-10T22:42:49.682Z,100.00
2018-07-10T22:45:19.852Z,100.00
2018-07-10T22:47:49.016Z,100.00
2018-07-10T22:50:20.269Z,100.00
2018-07-10T22:53:05.118Z,100.00
2018-07-10T22:55:34.185Z,100.00
2018-07-10T22:58:05.699Z,100.00
2018-07-10T23:00:37.073Z,100.00
2018-07-10T23:03:20.301Z,100.00
2018-07-10T23:05:51.081Z,100.00
2018-07-10T23:08:29.045Z,100.00
2018-07-10T23:10:59.651Z,100.00
2018-07-10T23:13:29.172Z,100.00
2018-07-10T23:15:58.210Z,100.00
2018-07-10T23:18:27.234Z,100.00
2018-07-10T23:20:56.342Z,100.00
2018-07-10T23:23:25.405Z,100.00
2018-07-10T23:25:54.495Z,100.00
2018-07-10T23:28:23.797Z,100.00
2018-07-10T23:30:53.301Z,100.00
2018-07-10T23:33:24.658Z,100.00
2018-07-10T23:35:57.618Z,100.00
2018-07-10T23:38:38.062Z,100.00
2018-07-10T23:41:15.125Z,100.00
2018-07-10T23:43:47.000Z,100.00
2018-07-10T23:46:23.077Z,100.00
2018-07-10T23:48:55.176Z,100.00
2018-07-10T23:51:24.168Z,100.00
2018-07-10T23:53:54.518Z,100.00
2018-07-10T23:56:23.869Z,100.00
2018-07-10T23:58:52.910Z,100.00
